sensor_id;sensor_type;location;lat;lon;timestamp;pressure;altitude;pressure_sealevel;temperature
37414;BMP280;23279;46.472;30.760;2023-04-19T00:01:24;77677.81;;;-146.33
37414;BMP280;23279;46.472;30.760;2023-04-19T00:03:49;77659.50;;;-146.33
37414;BMP280;23279;46.472;30.760;2023-04-19T00:06:15;77651.38;;;-146.33
37414;BMP280;23279;46.472;30.760;2023-04-19T00:08:41;77631.03;;;-146.33
37414;BMP280;23279;46.472;30.760;2023-04-19T00:11:07;77633.06;;;-146.33
37414;BMP280;23279;46.472;30.760;2023-04-19T00:13:33;77612.72;;;-146.33
37414;BMP280;23279;46.472;30.760;2023-04-19T00:15:59;77582.19;;;-146.33
37414;BMP280;23279;46.472;30.760;2023-04-19T00:18:24;77557.78;;;-146.33
37414;BMP280;23279;46.472;30.760;2023-04-19T00:20:50;77523.19;;;-146.33
37414;BMP280;23279;46.472;30.760;2023-04-19T00:23:15;77510.97;;;-146.33
37414;BMP280;23279;46.472;30.760;2023-04-19T00:25:41;77474.38;;;-146.33
37414;BMP280;23279;46.472;30.760;2023-04-19T00:28:06;77417.41;;;-146.33
37414;BMP280;23279;46.472;30.760;2023-04-19T00:30:32;77352.28;;;-146.33
37414;BMP280;23279;46.472;30.760;2023-04-19T00:32:57;77246.50;;;-146.33
37414;BMP280;23279;46.472;30.760;2023-04-19T00:35:23;77144.78;;;-146.33
37414;BMP280;23279;46.472;30.760;2023-04-19T00:37:48;77016.63;;;-146.33
37414;BMP280;23279;46.472;30.760;2023-04-19T00:40:14;76919.00;;;-146.33
37414;BMP280;23279;46.472;30.760;2023-04-19T00:42:39;76770.50;;;-146.33
37414;BMP280;23279;46.472;30.760;2023-04-19T00:45:05;76683.03;;;-146.33
37414;BMP280;23279;46.472;30.760;2023-04-19T00:47:30;76607.78;;;-146.33
37414;BMP280;23279;46.472;30.760;2023-04-19T00:49:56;76550.84;;;-146.33
37414;BMP280;23279;46.472;30.760;2023-04-19T00:52:22;76587.44;;;-146.33
37414;BMP280;23279;46.472;30.760;2023-04-19T00:54:47;76705.41;;;-146.33
37414;BMP280;23279;46.472;30.760;2023-04-19T00:57:14;76833.56;;;-146.33
37414;BMP280;23279;46.472;30.760;2023-04-19T00:59:40;76963.75;;;-146.33
37414;BMP280;23279;46.472;30.760;2023-04-19T01:02:05;77136.66;;;-146.33
37414;BMP280;23279;46.472;30.760;2023-04-19T01:04:31;77295.34;;;-146.33
37414;BMP280;23279;46.472;30.760;2023-04-19T01:06:57;77425.53;;;-146.33
37414;BMP280;23279;46.472;30.760;2023-04-19T01:09:22;77506.91;;;-146.33
37414;BMP280;23279;46.472;30.760;2023-04-19T01:11:48;77525.22;;;-146.33
37414;BMP280;23279;46.472;30.760;2023-04-19T01:14:14;77531.34;;;-146.33
37414;BMP280;23279;46.472;30.760;2023-04-19T01:16:39;77531.34;;;-146.33
37414;BMP280;23279;46.472;30.760;2023-04-19T01:19:05;77474.38;;;-146.33
37414;BMP280;23279;46.472;30.760;2023-04-19T01:21:31;77413.31;;;-146.33
37414;BMP280;23279;46.472;30.760;2023-04-19T01:23:56;77417.41;;;-146.33
37414;BMP280;23279;46.472;30.760;2023-04-19T01:26:22;77423.50;;;-146.33
37414;BMP280;23279;46.472;30.760;2023-04-19T01:28:47;77366.53;;;-146.33
37414;BMP280;23279;46.472;30.760;2023-04-19T01:31:13;77413.31;;;-146.33
37414;BMP280;23279;46.472;30.760;2023-04-19T01:33:38;77315.69;;;-146.33
37414;BMP280;23279;46.472;30.760;2023-04-19T01:36:04;77181.41;;;-146.33
37414;BMP280;23279;46.472;30.760;2023-04-19T01:38:29;77014.59;;;-146.33
37414;BMP280;23279;46.472;30.760;2023-04-19T01:40:55;76890.50;;;-146.33
37414;BMP280;23279;46.472;30.760;2023-04-19T01:43:21;76792.88;;;-146.33
37414;BMP280;23279;46.472;30.760;2023-04-19T01:45:47;76709.50;;;-146.33
37414;BMP280;23279;46.472;30.760;2023-04-19T01:48:12;76615.94;;;-146.33
37414;BMP280;23279;46.472;30.760;2023-04-19T01:50:37;76577.28;;;-146.33
37414;BMP280;23279;46.472;30.760;2023-04-19T01:53:03;76563.03;;;-146.33
37414;BMP280;23279;46.472;30.760;2023-04-19T01:55:28;76565.06;;;-146.33
37414;BMP280;23279;46.472;30.760;2023-04-19T01:57:54;76573.22;;;-146.33
37414;BMP280;23279;46.472;30.760;2023-04-19T02:00:20;76558.97;;;-146.33
37414;BMP280;23279;46.472;30.760;2023-04-19T02:02:46;76575.25;;;-146.33
37414;BMP280;23279;46.472;30.760;2023-04-19T02:05:12;76587.44;;;-146.33
37414;BMP280;23279;46.472;30.760;2023-04-19T02:07:37;76583.38;;;-146.33
37414;BMP280;23279;46.472;30.760;2023-04-19T02:10:04;76597.63;;;-146.33
37414;BMP280;23279;46.472;30.760;2023-04-19T02:12:30;76620.00;;;-146.33
37414;BMP280;23279;46.472;30.760;2023-04-19T02:14:56;76644.41;;;-146.33
37414;BMP280;23279;46.472;30.760;2023-04-19T02:17:22;76654.56;;;-146.33
37414;BMP280;23279;46.472;30.760;2023-04-19T02:19:49;76630.16;;;-146.33
37414;BMP280;23279;46.472;30.760;2023-04-19T02:22:14;76626.09;;;-146.33
37414;BMP280;23279;46.472;30.760;2023-04-19T02:24:39;76624.06;;;-146.33
37414;BMP280;23279;46.472;30.760;2023-04-19T02:27:05;76636.25;;;-146.33
37414;BMP280;23279;46.472;30.760;2023-04-19T02:29:31;76634.22;;;-146.33
37414;BMP280;23279;46.472;30.760;2023-04-19T02:31:56;76636.25;;;-146.33
37414;BMP280;23279;46.472;30.760;2023-04-19T02:34:22;76640.34;;;-146.33
37414;BMP280;23279;46.472;30.760;2023-04-19T02:36:47;76648.47;;;-146.33
37414;BMP280;23279;46.472;30.760;2023-04-19T02:39:13;76634.22;;;-146.33
37414;BMP280;23279;46.472;30.760;2023-04-19T02:41:38;76674.91;;;-146.33
37414;BMP280;23279;46.472;30.760;2023-04-19T02:44:04;76693.22;;;-146.33
37414;BMP280;23279;46.472;30.760;2023-04-19T02:46:29;76729.81;;;-146.33
37414;BMP280;23279;46.472;30.760;2023-04-19T02:48:54;76766.44;;;-146.33
37414;BMP280;23279;46.472;30.760;2023-04-19T02:51:20;76786.78;;;-146.33
37414;BMP280;23279;46.472;30.760;2023-04-19T02:53:45;76841.69;;;-146.33
37414;BMP280;23279;46.472;30.760;2023-04-19T02:56:11;76898.66;;;-146.33
37414;BMP280;23279;46.472;30.760;2023-04-19T02:58:36;76969.84;;;-146.33
37414;BMP280;23279;46.472;30.760;2023-04-19T03:01:02;77002.41;;;-146.33
37414;BMP280;23279;46.472;30.760;2023-04-19T03:03:27;77018.66;;;-146.33
37414;BMP280;23279;46.472;30.760;2023-04-19T03:05:53;77034.94;;;-146.33
37414;BMP280;23279;46.472;30.760;2023-04-19T03:08:18;77043.06;;;-146.33
37414;BMP280;23279;46.472;30.760;2023-04-19T03:10:44;77041.03;;;-146.33
37414;BMP280;23279;46.472;30.760;2023-04-19T03:13:09;77051.22;;;-146.33
37414;BMP280;23279;46.472;30.760;2023-04-19T03:15:35;77043.06;;;-146.33
37414;BMP280;23279;46.472;30.760;2023-04-19T03:18:00;77041.03;;;-146.33
37414;BMP280;23279;46.472;30.760;2023-04-19T03:20:26;77055.28;;;-146.33
37414;BMP280;23279;46.472;30.760;2023-04-19T03:22:51;77041.03;;;-146.33
37414;BMP280;23279;46.472;30.760;2023-04-19T03:25:17;77000.34;;;-146.33
37414;BMP280;23279;46.472;30.760;2023-04-19T03:27:42;76996.28;;;-146.33
37414;BMP280;23279;46.472;30.760;2023-04-19T03:30:11;76975.94;;;-146.33
37414;BMP280;23279;46.472;30.760;2023-04-19T03:32:36;76971.88;;;-146.33
37414;BMP280;23279;46.472;30.760;2023-04-19T03:35:02;76933.22;;;-146.33
37414;BMP280;23279;46.472;30.760;2023-04-19T03:37:27;76904.75;;;-146.33
37414;BMP280;23279;46.472;30.760;2023-04-19T03:39:53;76882.38;;;-146.33
37414;BMP280;23279;46.472;30.760;2023-04-19T03:42:18;76888.47;;;-146.33
37414;BMP280;23279;46.472;30.760;2023-04-19T03:44:44;76876.28;;;-146.33
37414;BMP280;23279;46.472;30.760;2023-04-19T03:47:09;76864.06;;;-146.33
37414;BMP280;23279;46.472;30.760;2023-04-19T03:49:35;76851.88;;;-146.33
37414;BMP280;23279;46.472;30.760;2023-04-19T03:52:00;76876.28;;;-146.33
37414;BMP280;23279;46.472;30.760;2023-04-19T03:54:26;76894.59;;;-146.33
37414;BMP280;23279;46.472;30.760;2023-04-19T03:56:51;76892.53;;;-146.33
37414;BMP280;23279;46.472;30.760;2023-04-19T03:59:16;76912.88;;;-146.33
37414;BMP280;23279;46.472;30.760;2023-04-19T04:01:42;76906.78;;;-146.33
37414;BMP280;23279;46.472;30.760;2023-04-19T04:04:07;76939.34;;;-146.33
37414;BMP280;23279;46.472;30.760;2023-04-19T04:06:33;76945.44;;;-146.33
37414;BMP280;23279;46.472;30.760;2023-04-19T04:08:59;77002.41;;;-146.33
37414;BMP280;23279;46.472;30.760;2023-04-19T04:11:25;77008.50;;;-146.33
37414;BMP280;23279;46.472;30.760;2023-04-19T04:13:50;77020.69;;;-146.33
37414;BMP280;23279;46.472;30.760;2023-04-19T04:16:16;77043.06;;;-146.33
37414;BMP280;23279;46.472;30.760;2023-04-19T04:18:41;77085.78;;;-146.33
37414;BMP280;23279;46.472;30.760;2023-04-19T04:21:06;77102.06;;;-146.33
37414;BMP280;23279;46.472;30.760;2023-04-19T04:23:32;77112.25;;;-146.33
37414;BMP280;23279;46.472;30.760;2023-04-19T04:25:58;77122.41;;;-146.33
37414;BMP280;23279;46.472;30.760;2023-04-19T04:28:29;77136.66;;;-146.33
37414;BMP280;23279;46.472;30.760;2023-04-19T04:30:55;77159.03;;;-146.33
37414;BMP280;23279;46.472;30.760;2023-04-19T04:33:25;77165.13;;;-146.33
37414;BMP280;23279;46.472;30.760;2023-04-19T04:35:52;77169.19;;;-146.33
37414;BMP280;23279;46.472;30.760;2023-04-19T04:38:18;77161.06;;;-146.33
37414;BMP280;23279;46.472;30.760;2023-04-19T04:40:49;77140.72;;;-146.33
37414;BMP280;23279;46.472;30.760;2023-04-19T04:43:15;77169.19;;;-146.33
37414;BMP280;23279;46.472;30.760;2023-04-19T04:45:40;77193.63;;;-146.33
37414;BMP280;23279;46.472;30.760;2023-04-19T04:48:08;77216.00;;;-146.33
37414;BMP280;23279;46.472;30.760;2023-04-19T04:50:33;77246.50;;;-146.33
37414;BMP280;23279;46.472;30.760;2023-04-19T04:52:59;77297.38;;;-146.33
37414;BMP280;23279;46.472;30.760;2023-04-19T04:55:24;77331.94;;;-146.33
37414;BMP280;23279;46.472;30.760;2023-04-19T04:57:50;77305.50;;;-146.33
37414;BMP280;23279;46.472;30.760;2023-04-19T05:00:15;77301.44;;;-146.33
37414;BMP280;23279;46.472;30.760;2023-04-19T05:02:41;77266.84;;;-146.33
37414;BMP280;23279;46.472;30.760;2023-04-19T05:05:07;77226.16;;;-146.33
37414;BMP280;23279;46.472;30.760;2023-04-19T05:07:35;77197.69;;;-146.33
37414;BMP280;23279;46.472;30.760;2023-04-19T05:10:00;77171.25;;;-146.33
37414;BMP280;23279;46.472;30.760;2023-04-19T05:12:26;77142.75;;;-146.33
37414;BMP280;23279;46.472;30.760;2023-04-19T05:14:51;77112.25;;;-146.33
37414;BMP280;23279;46.472;30.760;2023-04-19T05:17:17;77071.56;;;-146.33
37414;BMP280;23279;46.472;30.760;2023-04-19T05:19:43;77085.78;;;-146.33
37414;BMP280;23279;46.472;30.760;2023-04-19T05:22:08;77071.56;;;-146.33
37414;BMP280;23279;46.472;30.760;2023-04-19T05:24:34;77039.00;;;-146.33
37414;BMP280;23279;46.472;30.760;2023-04-19T05:26:59;77004.44;;;-146.33
37414;BMP280;23279;46.472;30.760;2023-04-19T05:29:26;76980.03;;;-146.33
37414;BMP280;23279;46.472;30.760;2023-04-19T05:31:51;76949.50;;;-146.33
37414;BMP280;23279;46.472;30.760;2023-04-19T05:34:16;76929.16;;;-146.33
37414;BMP280;23279;46.472;30.760;2023-04-19T05:36:42;76933.22;;;-146.33
37414;BMP280;23279;46.472;30.760;2023-04-19T05:39:07;76955.59;;;-146.33
37414;BMP280;23279;46.472;30.760;2023-04-19T05:41:33;76949.50;;;-146.33
37414;BMP280;23279;46.472;30.760;2023-04-19T05:43:58;76941.38;;;-146.33
37414;BMP280;23279;46.472;30.760;2023-04-19T05:46:24;76929.16;;;-146.33
37414;BMP280;23279;46.472;30.760;2023-04-19T05:48:50;76943.41;;;-146.33
37414;BMP280;23279;46.472;30.760;2023-04-19T05:51:15;76945.44;;;-146.33
37414;BMP280;23279;46.472;30.760;2023-04-19T05:53:43;77008.50;;;-146.33
37414;BMP280;23279;46.472;30.760;2023-04-19T05:56:09;77020.69;;;-146.33
37414;BMP280;23279;46.472;30.760;2023-04-19T05:58:34;77024.78;;;-146.33
37414;BMP280;23279;46.472;30.760;2023-04-19T06:01:00;77059.34;;;-146.33
37414;BMP280;23279;46.472;30.760;2023-04-19T06:03:26;77093.94;;;-146.33
37414;BMP280;23279;46.472;30.760;2023-04-19T06:05:51;77093.94;;;-146.33
37414;BMP280;23279;46.472;30.760;2023-04-19T06:08:17;77041.03;;;-146.33
37414;BMP280;23279;46.472;30.760;2023-04-19T06:10:43;77026.81;;;-146.33
37414;BMP280;23279;46.472;30.760;2023-04-19T06:13:11;77047.16;;;-146.33
37414;BMP280;23279;46.472;30.760;2023-04-19T06:15:36;77034.94;;;-146.33
37414;BMP280;23279;46.472;30.760;2023-04-19T06:18:04;77020.69;;;-146.33
37414;BMP280;23279;46.472;30.760;2023-04-19T06:20:37;76990.19;;;-146.33
37414;BMP280;23279;46.472;30.760;2023-04-19T06:23:02;76996.28;;;-146.33
37414;BMP280;23279;46.472;30.760;2023-04-19T06:25:28;76994.25;;;-146.33
37414;BMP280;23279;46.472;30.760;2023-04-19T06:27:53;76994.25;;;-146.33
37414;BMP280;23279;46.472;30.760;2023-04-19T06:30:19;76969.84;;;-146.33
37414;BMP280;23279;46.472;30.760;2023-04-19T06:32:45;76916.97;;;-146.33
37414;BMP280;23279;46.472;30.760;2023-04-19T06:35:10;76857.97;;;-146.33
37414;BMP280;23279;46.472;30.760;2023-04-19T06:37:36;76823.38;;;-146.33
37414;BMP280;23279;46.472;30.760;2023-04-19T06:40:01;76782.72;;;-146.33
37414;BMP280;23279;46.472;30.760;2023-04-19T06:42:29;76774.56;;;-146.33
37414;BMP280;23279;46.472;30.760;2023-04-19T06:44:54;76758.31;;;-146.33
37414;BMP280;23279;46.472;30.760;2023-04-19T06:47:21;76772.53;;;-146.33
37414;BMP280;23279;46.472;30.760;2023-04-19T06:49:47;76798.97;;;-146.33
37414;BMP280;23279;46.472;30.760;2023-04-19T06:52:12;76776.59;;;-146.33
37414;BMP280;23279;46.472;30.760;2023-04-19T06:54:37;76758.31;;;-146.33
37414;BMP280;23279;46.472;30.760;2023-04-19T06:57:03;76742.03;;;-146.33
37414;BMP280;23279;46.472;30.760;2023-04-19T06:59:28;76750.16;;;-146.33
37414;BMP280;23279;46.472;30.760;2023-04-19T07:01:56;76758.31;;;-146.33
37414;BMP280;23279;46.472;30.760;2023-04-19T07:04:22;76748.13;;;-146.33
37414;BMP280;23279;46.472;30.760;2023-04-19T07:06:48;76703.38;;;-146.33
37414;BMP280;23279;46.472;30.760;2023-04-19T07:09:14;76717.63;;;-146.33
37414;BMP280;23279;46.472;30.760;2023-04-19T07:11:40;76723.72;;;-146.33
37414;BMP280;23279;46.472;30.760;2023-04-19T07:14:05;76729.81;;;-146.33
37414;BMP280;23279;46.472;30.760;2023-04-19T07:16:31;76758.31;;;-146.33
37414;BMP280;23279;46.472;30.760;2023-04-19T07:18:56;76772.53;;;-146.33
37414;BMP280;23279;46.472;30.760;2023-04-19T07:21:22;76748.13;;;-146.33
37414;BMP280;23279;46.472;30.760;2023-04-19T07:23:50;76713.56;;;-146.33
37414;BMP280;23279;46.472;30.760;2023-04-19T07:26:16;76689.16;;;-146.33
37414;BMP280;23279;46.472;30.760;2023-04-19T07:35:09;76685.06;;;-146.33
37414;BMP280;23279;46.472;30.760;2023-04-19T07:37:34;76664.75;;;-146.33
37414;BMP280;23279;46.472;30.760;2023-04-19T07:39:59;76658.63;;;-146.33
37414;BMP280;23279;46.472;30.760;2023-04-19T07:42:25;76674.91;;;-146.33
37414;BMP280;23279;46.472;30.760;2023-04-19T07:44:50;76609.81;;;-146.33
37414;BMP280;23279;46.472;30.760;2023-04-19T07:47:16;76603.72;;;-146.33
37414;BMP280;23279;46.472;30.760;2023-04-19T07:49:41;76599.66;;;-146.33
37414;BMP280;23279;46.472;30.760;2023-04-19T07:52:08;76567.09;;;-146.33
37414;BMP280;23279;46.472;30.760;2023-04-19T07:54:34;76546.78;;;-146.33
37414;BMP280;23279;46.472;30.760;2023-04-19T07:57:00;76530.50;;;-146.33
37414;BMP280;23279;46.472;30.760;2023-04-19T07:59:26;76473.56;;;-146.33
37414;BMP280;23279;46.472;30.760;2023-04-19T08:01:51;76483.72;;;-146.33
37414;BMP280;23279;46.472;30.760;2023-04-19T08:04:17;76481.69;;;-146.33
37414;BMP280;23279;46.472;30.760;2023-04-19T08:06:44;76430.84;;;-146.33
37414;BMP280;23279;46.472;30.760;2023-04-19T08:09:09;76418.63;;;-146.33
37414;BMP280;23279;46.472;30.760;2023-04-19T08:11:35;76412.53;;;-146.33
37414;BMP280;23279;46.472;30.760;2023-04-19T08:14:01;76406.44;;;-146.33
37414;BMP280;23279;46.472;30.760;2023-04-19T08:16:26;76375.94;;;-146.33
37414;BMP280;23279;46.472;30.760;2023-04-19T08:18:52;76367.78;;;-146.33
37414;BMP280;23279;46.472;30.760;2023-04-19T08:21:17;76396.28;;;-146.33
37414;BMP280;23279;46.472;30.760;2023-04-19T08:23:43;76382.03;;;-146.33
37414;BMP280;23279;46.472;30.760;2023-04-19T08:26:08;76367.78;;;-146.33
37414;BMP280;23279;46.472;30.760;2023-04-19T08:28:34;76384.06;;;-146.33
37414;BMP280;23279;46.472;30.760;2023-04-19T08:30:59;76412.53;;;-146.33
37414;BMP280;23279;46.472;30.760;2023-04-19T08:33:25;76428.81;;;-146.33
37414;BMP280;23279;46.472;30.760;2023-04-19T08:35:50;76441.00;;;-146.33
37414;BMP280;23279;46.472;30.760;2023-04-19T08:38:15;76457.28;;;-146.33
37414;BMP280;23279;46.472;30.760;2023-04-19T08:40:45;76457.28;;;-146.33
37414;BMP280;23279;46.472;30.760;2023-04-19T08:43:11;76481.69;;;-146.33
37414;BMP280;23279;46.472;30.760;2023-04-19T08:45:38;76493.91;;;-146.33
37414;BMP280;23279;46.472;30.760;2023-04-19T08:48:04;76485.75;;;-146.33
37414;BMP280;23279;46.472;30.760;2023-04-19T08:50:31;76518.28;;;-146.33
37414;BMP280;23279;46.472;30.760;2023-04-19T08:52:58;76526.44;;;-146.33
37414;BMP280;23279;46.472;30.760;2023-04-19T08:55:25;76524.41;;;-146.33
37414;BMP280;23279;46.472;30.760;2023-04-19T08:57:51;76563.03;;;-146.33
37414;BMP280;23279;46.472;30.760;2023-04-19T09:00:17;76620.00;;;-146.33
37414;BMP280;23279;46.472;30.760;2023-04-19T09:02:51;76656.59;;;-146.33
37414;BMP280;23279;46.472;30.760;2023-04-19T09:05:17;76681.00;;;-146.33
37414;BMP280;23279;46.472;30.760;2023-04-19T09:07:44;76719.66;;;-146.33
37414;BMP280;23279;46.472;30.760;2023-04-19T09:10:13;76723.72;;;-146.33
37414;BMP280;23279;46.472;30.760;2023-04-19T09:12:39;76723.72;;;-146.33
37414;BMP280;23279;46.472;30.760;2023-04-19T09:15:07;76697.28;;;-146.33
37414;BMP280;23279;46.472;30.760;2023-04-19T09:17:36;76652.53;;;-146.33
37414;BMP280;23279;46.472;30.760;2023-04-19T09:20:03;76585.41;;;-146.33
37414;BMP280;23279;46.472;30.760;2023-04-19T09:22:29;76528.47;;;-146.33
37414;BMP280;23279;46.472;30.760;2023-04-19T09:24:55;76489.81;;;-146.33
37414;BMP280;23279;46.472;30.760;2023-04-19T09:27:31;76445.09;;;-146.33
37414;BMP280;23279;46.472;30.760;2023-04-19T09:29:59;76420.69;;;-146.33
37414;BMP280;23279;46.472;30.760;2023-04-19T09:32:25;76349.50;;;-146.33
37414;BMP280;23279;46.472;30.760;2023-04-19T09:34:56;76284.41;;;-146.33
37414;BMP280;23279;46.472;30.760;2023-04-19T09:37:21;76237.66;;;-146.33
37414;BMP280;23279;46.472;30.760;2023-04-19T09:39:47;76174.59;;;-146.33
37414;BMP280;23279;46.472;30.760;2023-04-19T09:42:13;76097.31;;;-146.33
37414;BMP280;23279;46.472;30.760;2023-04-19T09:44:38;76042.41;;;-146.33
37414;BMP280;23279;46.472;30.760;2023-04-19T09:47:23;75977.34;;;-146.33
37414;BMP280;23279;46.472;30.760;2023-04-19T09:50:03;75936.69;;;-146.33
37414;BMP280;23279;46.472;30.760;2023-04-19T09:52:29;75896.00;;;-146.33
37414;BMP280;23279;46.472;30.760;2023-04-19T09:54:56;75847.22;;;-146.33
37414;BMP280;23279;46.472;30.760;2023-04-19T09:57:22;75814.69;;;-146.33
37414;BMP280;23279;46.472;30.760;2023-04-19T09:59:47;75757.75;;;-146.33
37414;BMP280;23279;46.472;30.760;2023-04-19T10:02:13;75692.69;;;-146.33
37414;BMP280;23279;46.472;30.760;2023-04-19T10:04:41;75647.94;;;-146.33
37414;BMP280;23279;46.472;30.760;2023-04-19T10:07:07;75635.75;;;-146.33
37414;BMP280;23279;46.472;30.760;2023-04-19T10:09:34;75615.41;;;-146.33
37414;BMP280;23279;46.472;30.760;2023-04-19T10:12:00;75568.66;;;-146.33
37414;BMP280;23279;46.472;30.760;2023-04-19T10:14:29;75550.34;;;-146.33
37414;BMP280;23279;46.472;30.760;2023-04-19T10:16:57;75519.84;;;-146.33
37414;BMP280;23279;46.472;30.760;2023-04-19T10:19:24;75554.41;;;-146.33
37414;BMP280;23279;46.472;30.760;2023-04-19T10:21:50;75654.03;;;-146.33
37414;BMP280;23279;46.472;30.760;2023-04-19T10:24:16;75798.41;;;-146.33
37414;BMP280;23279;46.472;30.760;2023-04-19T10:32:14;76121.72;;;-146.33
37414;BMP280;23279;46.472;30.760;2023-04-19T10:34:39;76186.81;;;-146.33
37414;BMP280;23279;46.472;30.760;2023-04-19T10:37:09;76255.94;;;-146.33
37414;BMP280;23279;46.472;30.760;2023-04-19T10:39:42;76229.50;;;-146.33
37414;BMP280;23279;46.472;30.760;2023-04-19T10:42:08;76290.50;;;-146.33
37414;BMP280;23279;46.472;30.760;2023-04-19T10:44:34;76290.50;;;-146.33
37414;BMP280;23279;46.472;30.760;2023-04-19T10:46:59;76249.84;;;-146.33
37414;BMP280;23279;46.472;30.760;2023-04-19T10:49:27;76257.97;;;-146.33
37414;BMP280;23279;46.472;30.760;2023-04-19T10:51:52;76257.97;;;-146.33
37414;BMP280;23279;46.472;30.760;2023-04-19T10:54:37;76316.97;;;-146.33
37414;BMP280;23279;46.472;30.760;2023-04-19T10:57:04;76314.91;;;-146.33
37414;BMP280;23279;46.472;30.760;2023-04-19T10:59:34;76410.50;;;-146.33
37414;BMP280;23279;46.472;30.760;2023-04-19T11:07:15;76449.16;;;-146.33
37414;BMP280;23279;46.472;30.760;2023-04-19T11:09:46;76453.22;;;-146.33
37414;BMP280;23279;46.472;30.760;2023-04-19T11:12:13;76502.03;;;-146.33
37414;BMP280;23279;46.472;30.760;2023-04-19T11:19:54;76632.19;;;-146.33
37414;BMP280;23279;46.472;30.760;2023-04-19T11:22:30;76615.94;;;-146.33
37414;BMP280;23279;46.472;30.760;2023-04-19T11:25:16;76567.09;;;-146.33
37414;BMP280;23279;46.472;30.760;2023-04-19T11:27:44;76542.72;;;-146.33
37414;BMP280;23279;46.472;30.760;2023-04-19T11:30:11;76479.66;;;-146.33
37414;BMP280;23279;46.472;30.760;2023-04-19T11:32:43;76424.75;;;-146.33
37414;BMP280;23279;46.472;30.760;2023-04-19T11:35:09;76357.63;;;-146.33
37414;BMP280;23279;46.472;30.760;2023-04-19T11:37:35;76335.25;;;-146.33
37414;BMP280;23279;46.472;30.760;2023-04-19T11:40:01;76375.94;;;-146.33
37414;BMP280;23279;46.472;30.760;2023-04-19T11:42:28;76394.25;;;-146.33
37414;BMP280;23279;46.472;30.760;2023-04-19T11:44:54;76327.13;;;-146.33
37414;BMP280;23279;46.472;30.760;2023-04-19T11:47:21;76335.25;;;-146.33
37414;BMP280;23279;46.472;30.760;2023-04-19T11:49:47;76363.72;;;-146.33
37414;BMP280;23279;46.472;30.760;2023-04-19T11:52:19;76447.13;;;-146.33
37414;BMP280;23279;46.472;30.760;2023-04-19T11:54:45;76528.47;;;-146.33
37414;BMP280;23279;46.472;30.760;2023-04-19T11:57:11;76595.59;;;-146.33
37414;BMP280;23279;46.472;30.760;2023-04-19T11:59:36;76658.63;;;-146.33
37414;BMP280;23279;46.472;30.760;2023-04-19T12:02:09;76636.25;;;-146.33
37414;BMP280;23279;46.472;30.760;2023-04-19T12:04:35;76660.66;;;-146.33
37414;BMP280;23279;46.472;30.760;2023-04-19T12:07:02;76672.88;;;-146.33
37414;BMP280;23279;46.472;30.760;2023-04-19T12:09:28;76646.44;;;-146.33
37414;BMP280;23279;46.472;30.760;2023-04-19T12:11:53;76558.97;;;-146.33
37414;BMP280;23279;46.472;30.760;2023-04-19T12:14:20;76441.00;;;-146.33
37414;BMP280;23279;46.472;30.760;2023-04-19T12:17:10;76343.41;;;-146.33
37414;BMP280;23279;46.472;30.760;2023-04-19T12:19:46;76239.69;;;-146.33
37414;BMP280;23279;46.472;30.760;2023-04-19T12:22:16;76180.69;;;-146.33
37414;BMP280;23279;46.472;30.760;2023-04-19T12:24:44;76156.28;;;-146.33
37414;BMP280;23279;46.472;30.760;2023-04-19T12:27:09;76131.91;;;-146.33
37414;BMP280;23279;46.472;30.760;2023-04-19T12:29:36;76135.97;;;-146.33
37414;BMP280;23279;46.472;30.760;2023-04-19T12:32:02;76162.41;;;-146.33
37414;BMP280;23279;46.472;30.760;2023-04-19T12:34:28;76199.00;;;-146.33
37414;BMP280;23279;46.472;30.760;2023-04-19T12:36:53;76176.63;;;-146.33
37414;BMP280;23279;46.472;30.760;2023-04-19T12:39:19;76144.09;;;-146.33
37414;BMP280;23279;46.472;30.760;2023-04-19T12:41:44;76135.97;;;-146.33
37414;BMP280;23279;46.472;30.760;2023-04-19T12:44:13;76164.44;;;-146.33
37414;BMP280;23279;46.472;30.760;2023-04-19T12:46:38;76119.69;;;-146.33
37414;BMP280;23279;46.472;30.760;2023-04-19T12:52:25;76032.25;;;-146.33
37414;BMP280;23279;46.472;30.760;2023-04-19T12:54:50;75981.41;;;-146.33
37414;BMP280;23279;46.472;30.760;2023-04-19T12:57:16;75930.56;;;-146.33
37414;BMP280;23279;46.472;30.760;2023-04-19T12:59:41;75883.81;;;-146.33
37414;BMP280;23279;46.472;30.760;2023-04-19T13:02:07;75853.31;;;-146.33
37414;BMP280;23279;46.472;30.760;2023-04-19T13:04:32;75816.72;;;-146.33
37414;BMP280;23279;46.472;30.760;2023-04-19T13:06:58;75843.16;;;-146.33
37414;BMP280;23279;46.472;30.760;2023-04-19T13:09:23;75796.38;;;-146.33
37414;BMP280;23279;46.472;30.760;2023-04-19T13:11:48;75774.00;;;-146.33
37414;BMP280;23279;46.472;30.760;2023-04-19T13:14:14;75739.44;;;-146.33
37414;BMP280;23279;46.472;30.760;2023-04-19T13:16:40;75729.28;;;-146.33
37414;BMP280;23279;46.472;30.760;2023-04-19T13:19:06;75698.78;;;-146.33
37414;BMP280;23279;46.472;30.760;2023-04-19T13:21:31;75676.41;;;-146.33
37414;BMP280;23279;46.472;30.760;2023-04-19T13:23:57;75643.88;;;-146.33
37414;BMP280;23279;46.472;30.760;2023-04-19T13:26:24;75595.09;;;-146.33
37414;BMP280;23279;46.472;30.760;2023-04-19T13:28:49;75578.81;;;-146.33
37414;BMP280;23279;46.472;30.760;2023-04-19T13:31:15;75558.47;;;-146.33
37414;BMP280;23279;46.472;30.760;2023-04-19T13:33:40;75534.09;;;-146.33
37414;BMP280;23279;46.472;30.760;2023-04-19T13:36:06;75534.09;;;-146.33
37414;BMP280;23279;46.472;30.760;2023-04-19T13:38:31;75511.72;;;-146.33
37414;BMP280;23279;46.472;30.760;2023-04-19T13:40:58;75489.34;;;-146.33
37414;BMP280;23279;46.472;30.760;2023-04-19T13:43:23;75456.84;;;-146.33
37414;BMP280;23279;46.472;30.760;2023-04-19T13:45:49;75448.69;;;-146.33
37414;BMP280;23279;46.472;30.760;2023-04-19T13:48:14;75422.25;;;-146.33
37414;BMP280;23279;46.472;30.760;2023-04-19T13:50:40;75432.44;;;-146.33
37414;BMP280;23279;46.472;30.760;2023-04-19T13:53:05;75422.25;;;-146.33